Time;durP1;ratioP1;P1;durP2;ratioP2;P2;SDS_P1;SDS_P2;PMS_P1;PMS_P2;Temp;Humidity;BMP_temperature;BMP_pressure;BME280_temperature;BME280_humidity;BME280_pressure;Samples;Min_cycle;Max_cycle;Signal;HPM_P1;HPM_P2
2022/07/05 00:01:13;;;;;;;;;;;14.80;99.90;;;;;;5157006;27;19919;-65
2022/07/05 00:03:40;;;;;;;;;;;14.70;99.90;;;;;;5157313;27;19919;-65
2022/07/05 00:06:07;;;;;;;;;;;14.70;99.90;;;;;;5156827;27;19919;-65
2022/07/05 00:08:34;;;;;;;;;;;14.70;99.90;;;;;;5157239;27;19919;-65
2022/07/05 00:11:00;;;;;;;;;;;14.60;99.90;;;;;;5138723;27;19919;-65
2022/07/05 00:13:27;;;;;;;;;;;14.60;99.90;;;;;;5156752;27;19926;-65
2022/07/05 00:15:54;;;;;;;;;;;14.50;99.90;;;;;;5157104;27;20385;-65
2022/07/05 00:18:21;;;;;;;;;;;14.50;99.90;;;;;;5157444;27;20345;-64
2022/07/05 00:20:48;;;;;;;;;;;14.50;99.90;;;;;;5157683;27;19942;-65
2022/07/05 00:23:15;;;;;;;;;;;14.40;99.90;;;;;;5138184;27;19919;-65
2022/07/05 00:25:41;;;;;;;;;;;14.40;99.90;;;;;;5157511;27;19930;-65
2022/07/05 00:28:08;;;;;;;;;;;14.40;99.90;;;;;;5138352;27;19919;-65
2022/07/05 00:30:35;;;;;;;;;;;14.40;99.90;;;;;;5157416;27;19962;-65
2022/07/05 00:33:02;;;;;;;;;;;14.30;99.90;;;;;;5156675;27;19970;-65
2022/07/05 00:35:29;;;;;;;;;;;14.30;99.90;;;;;;5138807;27;20400;-65
2022/07/05 00:37:55;;;;;;;;;;;14.30;99.90;;;;;;5156542;27;19926;-65
2022/07/05 00:40:22;;;;;;;;;;;14.30;99.90;;;;;;5138228;27;19926;-65
2022/07/05 00:42:49;;;;;;;;;;;14.30;99.90;;;;;;5138767;27;19926;-65
2022/07/05 00:45:16;;;;;;;;;;;14.30;99.90;;;;;;5156428;27;19919;-65
2022/07/05 00:47:43;;;;;;;;;;;14.30;99.90;;;;;;5155863;27;20296;-65
2022/07/05 00:50:10;;;;;;;;;;;14.30;99.90;;;;;;5137665;27;19926;-65
2022/07/05 00:52:36;;;;;;;;;;;14.30;99.90;;;;;;5138355;27;19919;-65
2022/07/05 00:55:03;;;;;;;;;;;14.20;99.90;;;;;;5137839;27;19934;-65
2022/07/05 00:57:33;;;;;;;;;;;14.20;99.90;;;;;;5155646;27;19919;-65
2022/07/05 01:00:00;;;;;;;;;;;14.10;99.90;;;;;;5156635;27;20022;-65
2022/07/05 01:02:41;;;;;;;;;;;14.10;99.90;;;;;;5136399;27;19919;-66
2022/07/05 01:05:08;;;;;;;;;;;14.10;99.90;;;;;;5137695;27;19919;-66
2022/07/05 01:07:41;;;;;;;;;;;14.00;99.90;;;;;;5156787;27;19942;-66
2022/07/05 01:10:31;;;;;;;;;;;14.00;99.90;;;;;;5137645;27;19919;-65
2022/07/05 01:13:15;;;;;;;;;;;14.00;99.90;;;;;;5144753;27;19923;-65
2022/07/05 01:16:03;;;;;;;;;;;13.90;99.90;;;;;;5155957;27;20025;-65
2022/07/05 01:18:59;;;;;;;;;;;13.80;99.90;;;;;;5155667;27;20002;-66
2022/07/05 01:21:26;;;;;;;;;;;13.70;99.90;;;;;;5134585;27;19923;-65
2022/07/05 01:24:01;;;;;;;;;;;13.70;99.90;;;;;;5155576;27;19923;-65
2022/07/05 01:26:38;;;;;;;;;;;13.60;99.90;;;;;;5155582;27;19925;-66
2022/07/05 01:29:07;;;;;;;;;;;13.60;99.90;;;;;;5120374;27;19919;-66
2022/07/05 01:31:43;;;;;;;;;;;13.60;99.90;;;;;;5156037;27;19919;-66
2022/07/05 01:34:10;;;;;;;;;;;13.60;99.90;;;;;;5137023;27;19920;-67
2022/07/05 01:36:40;;;;;;;;;;;13.50;99.90;;;;;;5155571;27;19919;-67
2022/07/05 01:39:07;;;;;;;;;;;13.50;99.90;;;;;;5155149;27;19930;-66
2022/07/05 01:41:51;;;;;;;;;;;13.50;99.90;;;;;;5155663;27;19919;-67
2022/07/05 01:44:18;;;;;;;;;;;13.50;99.90;;;;;;5119986;27;19926;-66
2022/07/05 01:46:44;;;;;;;;;;;13.40;99.90;;;;;;5155121;27;19923;-66
2022/07/05 01:49:15;;;;;;;;;;;13.40;99.90;;;;;;5155254;27;20024;-66
2022/07/05 01:52:09;;;;;;;;;;;13.40;99.90;;;;;;5136983;27;20270;-66
2022/07/05 01:54:36;;;;;;;;;;;13.40;99.90;;;;;;5151308;27;20013;-66
2022/07/05 01:57:06;;;;;;;;;;;13.30;99.90;;;;;;5136908;27;19926;-66
2022/07/05 01:59:34;;;;;;;;;;;13.30;99.90;;;;;;5155721;27;19926;-66
2022/07/05 02:02:12;;;;;;;;;;;13.30;99.90;;;;;;5155348;27;19919;-66
2022/07/05 02:04:45;;;;;;;;;;;13.20;99.90;;;;;;5137980;27;19919;-65
2022/07/05 02:07:16;;;;;;;;;;;13.10;99.90;;;;;;5154408;27;19919;-65
2022/07/05 02:09:43;;;;;;;;;;;13.10;99.90;;;;;;5155896;27;20022;-65
2022/07/05 02:12:12;;;;;;;;;;;13.10;99.90;;;;;;5159811;27;19926;-65
2022/07/05 02:14:39;;;;;;;;;;;13.00;99.90;;;;;;5140943;27;20227;-65
2022/07/05 02:17:06;;;;;;;;;;;13.00;99.90;;;;;;5141015;27;19970;-65
2022/07/05 02:19:34;;;;;;;;;;;12.90;99.90;;;;;;5140934;27;20258;-65
2022/07/05 02:22:01;;;;;;;;;;;12.90;99.90;;;;;;5159246;27;19991;-65
2022/07/05 02:24:37;;;;;;;;;;;12.90;99.90;;;;;;5140517;27;19925;-65
2022/07/05 02:27:03;;;;;;;;;;;12.80;99.90;;;;;;5159806;27;19923;-65
2022/07/05 02:29:33;;;;;;;;;;;12.80;99.90;;;;;;5158827;27;19923;-65
2022/07/05 02:32:00;;;;;;;;;;;12.80;99.90;;;;;;5158797;27;19925;-65
2022/07/05 02:34:27;;;;;;;;;;;12.80;99.90;;;;;;5140315;27;20277;-65
2022/07/05 02:36:54;;;;;;;;;;;12.70;99.90;;;;;;5158615;27;20387;-65
2022/07/05 02:39:20;;;;;;;;;;;12.70;99.90;;;;;;5159433;27;19942;-65
2022/07/05 02:41:47;;;;;;;;;;;12.70;99.90;;;;;;5123155;27;20366;-65
2022/07/05 02:44:14;;;;;;;;;;;12.60;99.90;;;;;;5140896;27;20377;-66
2022/07/05 02:46:41;;;;;;;;;;;12.60;99.90;;;;;;5159385;27;19942;-65
2022/07/05 02:49:07;;;;;;;;;;;12.50;99.90;;;;;;5140950;27;19919;-66
2022/07/05 02:51:34;;;;;;;;;;;12.50;99.90;;;;;;5158801;27;19919;-66
2022/07/05 02:54:01;;;;;;;;;;;12.50;99.90;;;;;;5159032;27;20066;-66
2022/07/05 02:56:28;;;;;;;;;;;12.40;99.90;;;;;;5158520;27;20361;-66
2022/07/05 02:58:54;;;;;;;;;;;12.40;99.90;;;;;;5158172;27;19919;-66
2022/07/05 03:01:21;;;;;;;;;;;12.40;99.90;;;;;;5140068;27;19923;-66
2022/07/05 03:03:52;;;;;;;;;;;12.30;99.90;;;;;;5141191;27;19965;-65
2022/07/05 03:06:18;;;;;;;;;;;12.30;99.90;;;;;;5157949;27;19919;-65
2022/07/05 03:08:45;;;;;;;;;;;12.30;99.90;;;;;;5139872;27;19919;-65
2022/07/05 03:11:12;;;;;;;;;;;12.30;99.90;;;;;;5157999;27;19919;-66
2022/07/05 03:13:39;;;;;;;;;;;12.20;99.90;;;;;;5157772;27;20405;-66
2022/07/05 03:16:06;;;;;;;;;;;12.20;99.90;;;;;;5140401;27;19919;-65
2022/07/05 03:18:33;;;;;;;;;;;12.20;99.90;;;;;;5157873;27;20383;-65
2022/07/05 03:21:00;;;;;;;;;;;12.20;99.90;;;;;;5138932;27;20388;-66
2022/07/05 03:23:26;;;;;;;;;;;12.10;99.90;;;;;;5158494;27;19919;-66
2022/07/05 03:25:54;;;;;;;;;;;12.10;99.90;;;;;;5139801;27;19968;-66
2022/07/05 03:28:21;;;;;;;;;;;12.00;99.90;;;;;;5158447;27;19923;-66
2022/07/05 03:30:47;;;;;;;;;;;12.00;99.90;;;;;;5139153;27;19925;-66
2022/07/05 03:33:14;;;;;;;;;;;12.00;99.90;;;;;;5139931;27;20018;-65
2022/07/05 03:35:41;;;;;;;;;;;12.00;99.90;;;;;;5139304;27;19919;-65
2022/07/05 03:38:08;;;;;;;;;;;11.90;99.90;;;;;;5139656;27;20266;-65
2022/07/05 03:40:35;;;;;;;;;;;11.90;99.90;;;;;;5157354;27;20014;-65
2022/07/05 03:43:01;;;;;;;;;;;11.90;99.90;;;;;;5157377;27;19941;-65
2022/07/05 03:45:28;;;;;;;;;;;11.90;99.90;;;;;;5157250;27;19958;-65
2022/07/05 03:47:59;;;;;;;;;;;11.80;99.90;;;;;;5138854;27;19919;-65
2022/07/05 03:50:46;;;;;;;;;;;11.80;99.90;;;;;;5157468;27;19926;-65
2022/07/05 03:53:13;;;;;;;;;;;11.80;99.90;;;;;;5158196;27;19919;-65
2022/07/05 03:55:40;;;;;;;;;;;11.80;99.90;;;;;;5138715;27;19968;-65
2022/07/05 03:58:06;;;;;;;;;;;11.80;99.90;;;;;;5157831;27;19928;-65
2022/07/05 04:00:34;;;;;;;;;;;11.80;99.90;;;;;;5157380;27;20388;-65
2022/07/05 04:03:01;;;;;;;;;;;11.80;99.90;;;;;;5156911;27;19926;-65
2022/07/05 04:05:28;;;;;;;;;;;11.80;99.90;;;;;;5138886;27;19919;-66
2022/07/05 04:07:55;;;;;;;;;;;11.80;99.90;;;;;;5157888;27;20233;-66
2022/07/05 04:10:22;;;;;;;;;;;11.70;99.90;;;;;;5138331;27;19919;-65
2022/07/05 04:12:49;;;;;;;;;;;11.80;99.90;;;;;;5157572;27;19926;-65
2022/07/05 04:15:15;;;;;;;;;;;11.80;99.90;;;;;;5156996;27;20366;-66
2022/07/05 04:18:00;;;;;;;;;;;11.80;99.90;;;;;;5139093;27;19919;-66
2022/07/05 04:20:27;;;;;;;;;;;11.70;99.90;;;;;;5156908;27;20343;-66
2022/07/05 04:22:54;;;;;;;;;;;11.80;99.90;;;;;;5156784;27;19919;-66
2022/07/05 04:25:21;;;;;;;;;;;11.80;99.90;;;;;;5121227;27;19971;-65
2022/07/05 04:27:52;;;;;;;;;;;11.80;99.90;;;;;;5156776;27;20025;-65
2022/07/05 04:30:20;;;;;;;;;;;11.80;99.90;;;;;;5156661;27;19919;-63
2022/07/05 04:32:47;;;;;;;;;;;11.80;99.90;;;;;;5138248;27;19923;-62
2022/07/05 04:35:14;;;;;;;;;;;11.90;99.90;;;;;;5156553;27;20104;-64
2022/07/05 04:37:40;;;;;;;;;;;11.90;99.90;;;;;;5138560;27;20346;-63
2022/07/05 04:40:08;;;;;;;;;;;11.90;99.90;;;;;;5156152;27;20006;-63
2022/07/05 04:42:35;;;;;;;;;;;12.00;99.90;;;;;;5138598;27;19919;-63
2022/07/05 04:45:02;;;;;;;;;;;12.10;99.90;;;;;;5156065;27;20010;-63
2022/07/05 04:47:29;;;;;;;;;;;12.30;99.90;;;;;;5155715;27;19979;-63
2022/07/05 04:49:57;;;;;;;;;;;12.80;99.90;;;;;;5137619;27;19923;-63
2022/07/05 04:52:24;;;;;;;;;;;13.30;99.90;;;;;;5155904;27;19923;-64
2022/07/05 04:54:51;;;;;;;;;;;14.00;99.90;;;;;;5137910;27;19919;-63
2022/07/05 04:57:17;;;;;;;;;;;14.60;99.90;;;;;;5156171;27;19919;-63
2022/07/05 04:59:44;;;;;;;;;;;15.20;99.90;;;;;;5155638;27;19925;-63
2022/07/05 05:02:12;;;;;;;;;;;15.80;99.90;;;;;;5120501;27;20366;-64
2022/07/05 05:04:39;;;;;;;;;;;16.40;99.90;;;;;;5156553;27;20284;-64
2022/07/05 05:07:05;;;;;;;;;;;17.00;99.90;;;;;;5155914;27;19919;-64
2022/07/05 05:09:32;;;;;;;;;;;17.50;99.90;;;;;;5156459;27;19991;-64
2022/07/05 05:11:59;;;;;;;;;;;17.90;99.90;;;;;;5155488;27;19919;-64
2022/07/05 05:14:26;;;;;;;;;;;18.40;99.90;;;;;;5155574;27;19948;-64
2022/07/05 05:16:52;;;;;;;;;;;18.80;99.90;;;;;;5155514;27;20374;-64
2022/07/05 05:19:20;;;;;;;;;;;19.30;99.90;;;;;;5156018;27;19987;-64
2022/07/05 05:21:47;;;;;;;;;;;19.70;99.90;;;;;;5137572;27;19919;-64
2022/07/05 05:24:14;;;;;;;;;;;20.00;99.90;;;;;;5155418;27;20404;-63
2022/07/05 05:26:41;;;;;;;;;;;20.20;99.90;;;;;;5137120;27;19925;-63
2022/07/05 05:29:08;;;;;;;;;;;20.60;98.00;;;;;;5155656;27;20358;-63
2022/07/05 05:31:34;;;;;;;;;;;20.70;97.30;;;;;;5155293;27;19968;-63
2022/07/05 05:34:01;;;;;;;;;;;20.80;96.40;;;;;;5155599;27;20258;-63
2022/07/05 05:36:28;;;;;;;;;;;20.90;94.90;;;;;;5137328;27;20009;-63
2022/07/05 05:38:55;;;;;;;;;;;21.10;94.00;;;;;;5155544;27;19919;-63
2022/07/05 05:41:22;;;;;;;;;;;21.10;93.50;;;;;;5155553;27;19935;-63
2022/07/05 05:43:48;;;;;;;;;;;21.20;92.20;;;;;;5156083;27;19919;-63
2022/07/05 05:46:15;;;;;;;;;;;21.30;92.60;;;;;;5155128;27;19919;-63
2022/07/05 05:48:42;;;;;;;;;;;21.20;92.60;;;;;;5155506;27;19926;-64
2022/07/05 05:51:09;;;;;;;;;;;21.10;92.00;;;;;;5155008;27;19925;-64
2022/07/05 05:53:39;;;;;;;;;;;21.00;92.70;;;;;;5155452;27;20021;-64
2022/07/05 05:56:06;;;;;;;;;;;20.80;92.60;;;;;;5137531;27;19919;-64
2022/07/05 05:58:33;;;;;;;;;;;20.70;93.50;;;;;;5136750;27;19919;-75
2022/07/05 06:01:00;;;;;;;;;;;20.50;94.10;;;;;;5155416;27;20291;-77
2022/07/05 06:03:27;;;;;;;;;;;20.40;93.70;;;;;;5155330;27;20286;-74
2022/07/05 06:05:53;;;;;;;;;;;20.20;94.60;;;;;;5156047;27;19926;-76
2022/07/05 06:08:20;;;;;;;;;;;20.10;94.80;;;;;;5136606;27;20385;-76
2022/07/05 06:10:50;;;;;;;;;;;20.00;94.50;;;;;;5154873;27;19971;-73
2022/07/05 06:13:28;;;;;;;;;;;19.80;95.30;;;;;;5154916;27;19923;-75
2022/07/05 06:15:55;;;;;;;;;;;19.80;95.80;;;;;;5137256;27;20329;-75
2022/07/05 06:18:22;;;;;;;;;;;19.60;95.80;;;;;;5154950;27;19977;-75
2022/07/05 06:20:49;;;;;;;;;;;19.40;96.20;;;;;;5154910;27;19926;-75
2022/07/05 06:23:15;;;;;;;;;;;19.30;97.30;;;;;;5154882;27;19919;-75
2022/07/05 06:25:42;;;;;;;;;;;19.30;96.90;;;;;;5155685;27;19989;-77
2022/07/05 06:28:09;;;;;;;;;;;19.20;97.20;;;;;;5155071;27;20247;-74
2022/07/05 06:30:36;;;;;;;;;;;19.20;97.70;;;;;;5155073;27;20372;-74
2022/07/05 06:33:03;;;;;;;;;;;19.00;97.30;;;;;;5136415;27;19922;-73
2022/07/05 06:35:30;;;;;;;;;;;18.90;98.50;;;;;;5136511;27;20403;-70
2022/07/05 06:37:57;;;;;;;;;;;18.80;98.00;;;;;;5136102;27;19919;-73
2022/07/05 06:40:24;;;;;;;;;;;18.70;99.30;;;;;;5154851;27;19950;-71
2022/07/05 06:42:51;;;;;;;;;;;18.70;99.60;;;;;;5154639;27;19919;-72
2022/07/05 06:45:19;;;;;;;;;;;18.70;99.90;;;;;;5136499;27;20379;-74
2022/07/05 06:47:53;;;;;;;;;;;18.60;99.90;;;;;;5138869;27;19919;-73
2022/07/05 06:50:20;;;;;;;;;;;18.80;99.90;;;;;;5156500;27;19926;-73
2022/07/05 06:52:47;;;;;;;;;;;18.70;99.90;;;;;;5155723;27;20219;-74
2022/07/05 06:55:13;;;;;;;;;;;18.70;99.90;;;;;;5156077;27;19926;-73
2022/07/05 06:57:40;;;;;;;;;;;18.70;99.90;;;;;;5123106;27;19919;-73
2022/07/05 07:00:08;;;;;;;;;;;18.80;99.90;;;;;;5158656;27;20031;-76
2022/07/05 07:02:54;;;;;;;;;;;18.70;99.90;;;;;;5158368;27;19922;-75
2022/07/05 07:05:22;;;;;;;;;;;18.70;99.90;;;;;;5140384;27;19919;-75
2022/07/05 07:10:40;;;;;;;;;;;18.50;99.90;;;;;;5159385;27;19919;-74
2022/07/05 07:13:07;;;;;;;;;;;18.60;99.90;;;;;;5158206;27;19919;-75
2022/07/05 07:15:33;;;;;;;;;;;18.60;99.90;;;;;;5159004;27;20322;-75
2022/07/05 07:18:00;;;;;;;;;;;18.60;99.80;;;;;;5157973;27;19919;-75
2022/07/05 07:20:27;;;;;;;;;;;18.70;99.00;;;;;;5123815;27;20242;-76
2022/07/05 07:22:54;;;;;;;;;;;18.60;99.60;;;;;;5158218;27;20010;-74
2022/07/05 07:25:23;;;;;;;;;;;18.60;98.60;;;;;;5157777;27;20384;-76
2022/07/05 07:27:53;;;;;;;;;;;18.60;98.70;;;;;;5157818;27;19919;-71
2022/07/05 07:30:21;;;;;;;;;;;18.70;98.70;;;;;;5158643;27;19923;-69
2022/07/05 07:32:48;;;;;;;;;;;18.80;97.90;;;;;;5157590;27;19919;-68
2022/07/05 07:35:15;;;;;;;;;;;18.80;97.70;;;;;;5157958;27;19923;-68
2022/07/05 07:37:42;;;;;;;;;;;19.00;98.50;;;;;;5139031;27;20446;-69
2022/07/05 07:40:09;;;;;;;;;;;19.00;97.50;;;;;;5158482;27;19926;-67
2022/07/05 07:42:36;;;;;;;;;;;19.10;98.00;;;;;;5157426;27;20373;-69
2022/07/05 07:45:03;;;;;;;;;;;19.30;96.70;;;;;;5139354;27;19919;-69
2022/07/05 07:47:31;;;;;;;;;;;19.20;95.80;;;;;;5157894;27;19919;-69
2022/07/05 07:49:58;;;;;;;;;;;19.20;97.60;;;;;;5158845;27;20268;-69
2022/07/05 07:52:25;;;;;;;;;;;19.30;95.40;;;;;;5122810;27;19922;-69
2022/07/05 07:54:51;;;;;;;;;;;19.30;94.00;;;;;;5157248;27;20318;-69
2022/07/05 07:57:18;;;;;;;;;;;19.20;93.60;;;;;;5139281;27;19962;-69
2022/07/05 07:59:45;;;;;;;;;;;19.20;94.30;;;;;;5122481;27;20322;-67
2022/07/05 08:02:12;;;;;;;;;;;19.20;94.60;;;;;;5138674;27;19919;-68
2022/07/05 08:04:39;;;;;;;;;;;19.30;94.80;;;;;;5138938;27;19969;-71
2022/07/05 08:07:06;;;;;;;;;;;19.40;93.10;;;;;;5138685;27;19966;-71
2022/07/05 08:09:32;;;;;;;;;;;19.40;92.60;;;;;;5139748;27;19919;-69
2022/07/05 08:11:59;;;;;;;;;;;19.40;92.00;;;;;;5156863;27;20462;-69
2022/07/05 08:14:25;;;;;;;;;;;19.40;91.90;;;;;;5157255;27;19911;-69
2022/07/05 08:16:52;;;;;;;;;;;19.40;91.40;;;;;;5138776;27;19919;-69
2022/07/05 08:22:07;;;;;;;;;;;19.50;91.20;;;;;;5157838;27;19965;-69
2022/07/05 08:24:35;;;;;;;;;;;19.60;90.40;;;;;;5156721;27;20018;-70
2022/07/05 08:27:02;;;;;;;;;;;19.70;90.90;;;;;;5121219;27;19919;-66
2022/07/05 08:29:29;;;;;;;;;;;19.80;90.10;;;;;;5138255;27;19926;-66
2022/07/05 08:31:56;;;;;;;;;;;19.80;90.80;;;;;;5156815;27;20033;-70
2022/07/05 08:34:22;;;;;;;;;;;19.80;87.00;;;;;;5156480;27;19919;-67
2022/07/05 08:36:49;;;;;;;;;;;19.90;88.20;;;;;;5156388;27;19919;-67
2022/07/05 08:39:16;;;;;;;;;;;20.00;86.20;;;;;;5157176;27;19982;-67
2022/07/05 08:41:43;;;;;;;;;;;20.10;86.60;;;;;;5156185;27;19919;-67
2022/07/05 08:44:10;;;;;;;;;;;20.20;86.80;;;;;;5138083;27;19919;-67
2022/07/05 08:46:37;;;;;;;;;;;20.30;84.70;;;;;;5138536;27;19919;-67
2022/07/05 08:49:04;;;;;;;;;;;20.40;82.70;;;;;;5137875;27;19931;-67
2022/07/05 08:51:38;;;;;;;;;;;20.30;83.50;;;;;;5155946;27;19926;-70
2022/07/05 08:54:06;;;;;;;;;;;20.40;84.30;;;;;;5138094;27;19987;-67
2022/07/05 08:56:33;;;;;;;;;;;20.40;80.90;;;;;;5157124;27;20392;-67
2022/07/05 08:59:20;;;;;;;;;;;20.40;81.10;;;;;;5140619;27;19919;-67
2022/07/05 09:01:47;;;;;;;;;;;20.50;82.00;;;;;;5156736;27;19925;-67
2022/07/05 09:04:14;;;;;;;;;;;20.60;81.10;;;;;;5156252;27;19919;-67
2022/07/05 09:06:40;;;;;;;;;;;20.60;82.20;;;;;;5138538;27;19972;-70
2022/07/05 09:09:08;;;;;;;;;;;20.60;80.70;;;;;;5137782;27;20445;-67
2022/07/05 09:11:39;;;;;;;;;;;20.60;83.70;;;;;;5155693;27;20269;-68
2022/07/05 09:14:06;;;;;;;;;;;20.70;81.10;;;;;;5156864;27;19929;-67
2022/07/05 09:16:53;;;;;;;;;;;20.70;80.40;;;;;;5155529;27;19919;-67
2022/07/05 09:19:20;;;;;;;;;;;20.80;80.10;;;;;;5155989;27;19919;-67
2022/07/05 09:21:47;;;;;;;;;;;20.80;78.50;;;;;;5155548;27;19919;-67
2022/07/05 09:24:14;;;;;;;;;;;20.80;78.60;;;;;;5156354;27;19919;-68
2022/07/05 09:26:41;;;;;;;;;;;20.70;78.50;;;;;;5137513;27;19930;-67
2022/07/05 09:29:12;;;;;;;;;;;20.50;78.50;;;;;;5155496;27;19945;-67
2022/07/05 09:31:59;;;;;;;;;;;20.50;79.50;;;;;;5156636;27;19919;-67
2022/07/05 09:34:27;;;;;;;;;;;20.50;78.80;;;;;;5155718;27;19930;-67
2022/07/05 09:36:58;;;;;;;;;;;20.50;78.80;;;;;;5137203;27;19926;-67
2022/07/05 09:39:31;;;;;;;;;;;20.50;79.90;;;;;;5137445;27;19926;-67
2022/07/05 09:42:11;;;;;;;;;;;20.50;78.70;;;;;;5137245;27;19925;-67
2022/07/05 09:44:38;;;;;;;;;;;20.50;79.60;;;;;;5155290;27;19925;-67
2022/07/05 09:47:10;;;;;;;;;;;20.60;79.90;;;;;;5156419;27;19919;-67
2022/07/05 09:49:43;;;;;;;;;;;20.80;79.20;;;;;;5156214;27;19919;-67
2022/07/05 09:52:30;;;;;;;;;;;20.90;76.90;;;;;;5155763;27;20308;-67
2022/07/05 09:55:00;;;;;;;;;;;21.00;75.80;;;;;;5156275;27;19919;-67
2022/07/05 09:57:27;;;;;;;;;;;21.10;76.00;;;;;;5155114;27;19926;-67
2022/07/05 10:00:07;;;;;;;;;;;21.00;74.80;;;;;;5155668;27;20210;-67
2022/07/05 10:02:37;;;;;;;;;;;21.00;75.90;;;;;;5137962;27;19919;-67
2022/07/05 10:05:08;;;;;;;;;;;21.10;76.40;;;;;;5155430;27;19926;-67
2022/07/05 10:07:35;;;;;;;;;;;21.00;76.60;;;;;;5155039;27;19925;-70
2022/07/05 10:10:02;;;;;;;;;;;21.00;77.80;;;;;;5137012;27;20334;-67
2022/07/05 10:12:29;;;;;;;;;;;21.20;77.30;;;;;;5155990;27;19919;-67
2022/07/05 10:14:56;;;;;;;;;;;21.30;76.50;;;;;;5137750;27;20250;-67
2022/07/05 10:17:23;;;;;;;;;;;21.40;76.60;;;;;;5155980;27;19919;-67
2022/07/05 10:19:50;;;;;;;;;;;21.40;74.40;;;;;;5154909;27;19919;-67
2022/07/05 10:22:17;;;;;;;;;;;21.40;74.30;;;;;;5154827;27;19919;-67
2022/07/05 10:24:46;;;;;;;;;;;21.40;77.00;;;;;;5154823;27;20439;-67
2022/07/05 10:27:14;;;;;;;;;;;21.60;74.20;;;;;;5155670;27;19919;-66
2022/07/05 10:29:41;;;;;;;;;;;21.80;74.70;;;;;;5155099;27;19919;-67
2022/07/05 10:32:10;;;;;;;;;;;21.90;74.10;;;;;;5139757;27;19926;-67
2022/07/05 10:34:37;;;;;;;;;;;22.10;73.70;;;;;;5141144;27;19919;-67
2022/07/05 10:37:22;;;;;;;;;;;22.10;72.30;;;;;;5159174;27;19959;-67
2022/07/05 10:39:49;;;;;;;;;;;21.90;72.60;;;;;;5140436;27;19919;-67
2022/07/05 10:42:16;;;;;;;;;;;21.90;72.90;;;;;;5140263;27;19929;-66
2022/07/05 10:44:43;;;;;;;;;;;21.90;72.60;;;;;;5159033;27;20270;-66
2022/07/05 10:47:13;;;;;;;;;;;22.00;73.60;;;;;;5141294;27;19919;-67
2022/07/05 10:49:40;;;;;;;;;;;22.20;73.20;;;;;;5159986;27;19971;-67
2022/07/05 10:52:23;;;;;;;;;;;22.10;72.40;;;;;;5158550;27;19926;-67
2022/07/05 10:55:09;;;;;;;;;;;22.00;72.80;;;;;;5158934;27;19976;-67
2022/07/05 10:57:35;;;;;;;;;;;22.10;74.10;;;;;;5158844;27;19923;-69
2022/07/05 11:00:09;;;;;;;;;;;22.10;72.50;;;;;;5140458;27;19949;-67
2022/07/05 11:02:37;;;;;;;;;;;22.20;73.30;;;;;;5159828;27;20381;-76
2022/07/05 11:05:04;;;;;;;;;;;22.20;73.30;;;;;;5143988;27;19966;-78
2022/07/05 11:07:49;;;;;;;;;;;22.20;72.40;;;;;;5158434;27;19933;-75
2022/07/05 11:10:16;;;;;;;;;;;22.20;72.60;;;;;;5158427;27;19923;-82
2022/07/05 11:12:46;;;;;;;;;;;22.10;72.50;;;;;;5157965;27;19923;-77
2022/07/05 11:15:14;;;;;;;;;;;22.00;72.90;;;;;;5140584;27;19919;-70
2022/07/05 11:17:40;;;;;;;;;;;22.10;74.90;;;;;;5140472;27;19919;-74
2022/07/05 11:20:31;;;;;;;;;;;21.80;74.20;;;;;;5142495;27;19920;-69
2022/07/05 11:23:05;;;;;;;;;;;21.80;76.00;;;;;;5139499;27;20311;-73
2022/07/05 11:25:33;;;;;;;;;;;21.90;74.30;;;;;;5158322;27;19937;-76
2022/07/05 11:28:06;;;;;;;;;;;22.00;74.70;;;;;;5139936;27;20223;-73
2022/07/05 11:30:59;;;;;;;;;;;22.20;74.90;;;;;;5157956;27;20270;-77
2022/07/05 11:33:29;;;;;;;;;;;22.10;73.50;;;;;;5155202;27;20002;-82
2022/07/05 11:35:56;;;;;;;;;;;22.10;73.50;;;;;;5158451;27;19923;-76
2022/07/05 11:38:23;;;;;;;;;;;22.20;73.80;;;;;;5157981;27;19987;-80
2022/07/05 11:41:12;;;;;;;;;;;22.20;73.50;;;;;;5158707;27;20310;-83
2022/07/05 11:43:40;;;;;;;;;;;22.30;73.50;;;;;;5139721;27;19923;-84
2022/07/05 11:46:08;;;;;;;;;;;22.40;74.00;;;;;;5157755;27;20450;-80
2022/07/05 11:48:41;;;;;;;;;;;22.40;71.60;;;;;;5157937;27;19954;-73
2022/07/05 11:51:12;;;;;;;;;;;22.60;70.90;;;;;;5139537;27;19926;-70
2022/07/05 11:53:38;;;;;;;;;;;22.70;70.70;;;;;;5157240;27;20043;-72
2022/07/05 11:56:25;;;;;;;;;;;22.80;72.20;;;;;;5142006;27;19970;-71
2022/07/05 11:58:52;;;;;;;;;;;22.90;71.00;;;;;;5139056;27;20261;-70
2022/07/05 12:01:19;;;;;;;;;;;23.00;71.40;;;;;;5121576;27;19926;-74
2022/07/05 12:03:53;;;;;;;;;;;23.10;70.20;;;;;;5139608;27;19923;-74
2022/07/05 12:06:20;;;;;;;;;;;22.90;70.20;;;;;;5157092;27;19919;-66
2022/07/05 12:08:47;;;;;;;;;;;22.70;70.60;;;;;;5138575;27;19925;-68
2022/07/05 12:13:59;;;;;;;;;;;23.20;69.70;;;;;;5157799;27;19919;-67
2022/07/05 12:16:28;;;;;;;;;;;23.20;68.50;;;;;;5138621;27;20381;-64
2022/07/05 12:18:55;;;;;;;;;;;23.10;68.20;;;;;;5157275;27;19931;-73
2022/07/05 12:21:22;;;;;;;;;;;22.90;69.20;;;;;;5157855;27;19926;-79
2022/07/05 12:23:49;;;;;;;;;;;22.80;69.10;;;;;;5157554;27;19919;-69
2022/07/05 12:26:16;;;;;;;;;;;22.90;70.60;;;;;;5156798;27;19923;-68
2022/07/05 12:28:44;;;;;;;;;;;23.20;69.90;;;;;;5156377;27;19926;-67
2022/07/05 12:31:20;;;;;;;;;;;23.30;70.40;;;;;;5156851;27;20270;-69
2022/07/05 12:33:48;;;;;;;;;;;23.70;68.10;;;;;;5157433;27;19919;-69
2022/07/05 12:36:19;;;;;;;;;;;24.00;69.20;;;;;;5138121;27;19962;-69
2022/07/05 12:38:46;;;;;;;;;;;24.10;67.20;;;;;;5138018;27;19930;-69
2022/07/05 12:41:20;;;;;;;;;;;24.20;67.50;;;;;;5138031;27;19923;-67
2022/07/05 12:43:49;;;;;;;;;;;24.10;67.10;;;;;;5138265;27;20017;-68
2022/07/05 12:46:16;;;;;;;;;;;24.10;66.70;;;;;;5156417;27;20266;-69
2022/07/05 12:48:43;;;;;;;;;;;24.10;69.30;;;;;;5138160;27;19919;-69
2022/07/05 12:51:10;;;;;;;;;;;24.10;65.80;;;;;;5157185;27;19919;-71
2022/07/05 12:59:38;;;;;;;;;;;24.10;67.70;;;;;;5155723;27;20349;-63
2022/07/05 13:02:05;;;;;;;;;;;23.90;66.10;;;;;;5155841;27;19925;-63
2022/07/05 13:04:32;;;;;;;;;;;23.90;66.20;;;;;;5155751;27;19972;-63
2022/07/05 13:07:00;;;;;;;;;;;23.80;66.70;;;;;;5155685;27;19919;-63
2022/07/05 13:09:43;;;;;;;;;;;23.70;67.50;;;;;;5139876;27;19919;-64
2022/07/05 13:12:13;;;;;;;;;;;23.60;68.90;;;;;;5156281;27;19926;-70
2022/07/05 13:14:41;;;;;;;;;;;23.70;68.00;;;;;;5156444;27;20018;-64
2022/07/05 13:17:08;;;;;;;;;;;23.60;68.80;;;;;;5155569;27;19926;-63
2022/07/05 13:19:35;;;;;;;;;;;23.60;69.00;;;;;;5137246;27;20124;-63
2022/07/05 13:22:02;;;;;;;;;;;23.60;68.30;;;;;;5156598;27;19942;-63
2022/07/05 13:24:29;;;;;;;;;;;23.70;69.40;;;;;;5155443;27;19963;-63
2022/07/05 13:26:56;;;;;;;;;;;23.60;68.90;;;;;;5137368;27;19923;-63
2022/07/05 13:29:23;;;;;;;;;;;23.50;68.60;;;;;;5155327;27;19919;-62
2022/07/05 13:31:50;;;;;;;;;;;23.30;69.40;;;;;;5156017;27;19926;-62
2022/07/05 13:34:17;;;;;;;;;;;23.30;70.10;;;;;;5155148;27;19948;-62
2022/07/05 13:36:44;;;;;;;;;;;23.20;69.90;;;;;;5155702;27;19942;-61
2022/07/05 13:39:11;;;;;;;;;;;23.20;70.50;;;;;;5155125;27;19919;-61
2022/07/05 13:41:38;;;;;;;;;;;23.20;70.50;;;;;;5155616;27;19919;-61
2022/07/05 13:44:05;;;;;;;;;;;23.40;71.00;;;;;;5156146;27;20249;-63
2022/07/05 13:46:32;;;;;;;;;;;23.60;70.30;;;;;;5155898;27;19925;-62
2022/07/05 13:48:59;;;;;;;;;;;23.80;70.50;;;;;;5155876;27;20202;-62
2022/07/05 13:51:26;;;;;;;;;;;23.80;70.30;;;;;;5155384;27;19923;-62
2022/07/05 13:53:55;;;;;;;;;;;23.90;69.50;;;;;;5154949;27;20022;-62
2022/07/05 13:56:22;;;;;;;;;;;24.00;69.40;;;;;;5137604;27;19919;-63
2022/07/05 13:58:49;;;;;;;;;;;23.90;68.90;;;;;;5155038;27;20273;-63
2022/07/05 14:01:17;;;;;;;;;;;23.80;69.00;;;;;;5155795;27;19925;-64
2022/07/05 14:03:44;;;;;;;;;;;23.60;69.00;;;;;;5154877;27;19919;-64
2022/07/05 14:06:11;;;;;;;;;;;23.50;70.00;;;;;;5159083;27;19955;-62
2022/07/05 14:08:38;;;;;;;;;;;23.50;70.00;;;;;;5141214;27;19919;-67
2022/07/05 14:11:09;;;;;;;;;;;23.60;69.90;;;;;;5140757;27;19919;-58
2022/07/05 14:13:36;;;;;;;;;;;23.50;70.10;;;;;;5159231;27;19931;-71
2022/07/05 14:16:03;;;;;;;;;;;23.60;70.30;;;;;;5159454;27;19926;-66
2022/07/05 14:18:30;;;;;;;;;;;23.80;70.20;;;;;;5159134;27;19919;-65
2022/07/05 14:20:56;;;;;;;;;;;23.90;69.50;;;;;;5158998;27;19967;-66
2022/07/05 14:23:23;;;;;;;;;;;23.90;69.70;;;;;;5159822;27;20013;-68
2022/07/05 14:25:50;;;;;;;;;;;23.90;69.10;;;;;;5159123;27;19919;-69
2022/07/05 14:28:17;;;;;;;;;;;23.90;69.10;;;;;;5159338;27;19919;-69
2022/07/05 14:30:44;;;;;;;;;;;23.90;70.40;;;;;;5159676;27;19919;-71
2022/07/05 14:33:12;;;;;;;;;;;23.70;69.60;;;;;;5123798;27;19967;-72
2022/07/05 14:35:40;;;;;;;;;;;23.80;69.70;;;;;;5141078;27;19919;-73
2022/07/05 14:38:07;;;;;;;;;;;23.80;69.70;;;;;;5141501;27;19995;-73
2022/07/05 14:40:33;;;;;;;;;;;23.70;69.40;;;;;;5159062;27;19919;-70